Hatia, Bangladesh

8:19 PM BDT on July 24, 2014 (GMT +0600)
M.A. Hannan International (VGEG) Elev 13 ft | 22.27 °N, 91.82 °E | Change Station

Current weather conditions updated 29 minutes ago

Mostly Cloudy
Mostly Cloudy
82 °F
Feels Like 92 °F
N
5
Wind Variable Wind from South

Tomorrow is forecast to be nearly the same temperature as today. Morning showers and thunderstorms.

Today
High -- | Low -- °F
--% Chance of Precip.
Yesterday
High -- | Low -- °F
Precip. -- in
5:23 AM 6:40 PM
Waning Crescent, 5% visible
Pressure 29.56 in
Visibility 3.7 miles
Clouds Scattered Clouds 1600 ft
Few 3000 ft
Mostly Cloudy 10000 ft
Heat Index 92 °F
Dew Point 79 °F
Humidity 89%
Rainfall 0.00 in
Snow Depth Not available.
UV 0 out of 12
Pollen Not available.
Air Quality Not available.
Flu Activity Not available.
METAR VGEG 241350Z 19004KT 6000 SCT016 FEW030CB BKN100 28/26 Q1001 NOSIG

More Conditions Fewer Conditions

Pressure 29.56 in
Visibility 3.7 miles
Clouds Scattered Clouds 1600 ft
Few 3000 ft
Mostly Cloudy 10000 ft
Heat Index 92 °F
Dew Point 79 °F
Humidity 89%
Rainfall 0.00 in
Snow Depth Not available.
UV 0 out of 12
Pollen Not available.
Air Quality Not available.
Flu Activity Not available.
METAR VGEG 241350Z 19004KT 6000 SCT016 FEW030CB BKN100 28/26 Q1001 NOSIG

More Conditions Fewer Conditions

10-Day Weather Forecast

Almanac

Astronomy

Jul. 24, 2014 Rise Set
Actual Time 5:23 AM BDT 6:40 PM BDT
Civil Twilight 4:59 AM BDT 7:04 PM BDT
Nautical Twilight 4:30 AM BDT 7:33 PM BDT
Astronomical Twilight 4:00 AM BDT 8:03 PM BDT
Moon 3:04 AM BDT 4:35 PM BDT
Length of Visible Light 14h 05m
Length of Day
13h 16m
Tomorrow will be 0m 50s shorter.
Waning Crescent, 5% of the Moon is Illuminated
Today
Waning Crescent
Jul 26
New
Aug 3
First Quarter
Aug 10
Full
Aug 17
Last Quarter

Yesterday's Extremes

Country Highs Country Lows

Community

WunderPhotos

Upload Photos

1,737,011 photos uploaded!

Nearby

Snow Depth

Not available.

Earthquake Activity

City Distance Mag. Time & Date
No recent earthquake activity has been reported nearby.
Minimum magnitude displayed is 2.5.

Coastal Water Temperatures

Place Temperature
No Stations Reporting

Nearby Weather Stations

There are no personal weather stations in this area.